createdAt,value
2022-10-23T00:01:45.873Z,14.40
2022-10-23T00:04:17.033Z,14.40
2022-10-23T00:06:44.612Z,14.30
2022-10-23T00:09:13.329Z,14.30
2022-10-23T00:11:41.594Z,14.30
2022-10-23T00:14:09.309Z,14.30
2022-10-23T00:16:36.750Z,14.20
2022-10-23T00:19:04.667Z,14.20
2022-10-23T00:21:33.276Z,14.20
2022-10-23T00:24:00.599Z,14.20
2022-10-23T00:26:28.135Z,14.10
2022-10-23T00:28:55.975Z,14.10
2022-10-23T00:31:24.487Z,14.10
2022-10-23T00:33:52.655Z,14.00
2022-10-23T00:36:21.322Z,14.00
2022-10-23T00:38:50.437Z,14.00
2022-10-23T00:41:20.419Z,14.00
2022-10-23T00:44:07.559Z,14.00
2022-10-23T00:46:35.697Z,14.00
2022-10-23T00:49:04.302Z,13.90
2022-10-23T00:51:36.626Z,13.90
2022-10-23T00:54:22.901Z,13.90
2022-10-23T00:56:52.986Z,13.90
2022-10-23T00:59:20.403Z,13.90
2022-10-23T01:01:48.423Z,13.90
2022-10-23T01:04:15.971Z,13.90
2022-10-23T01:06:53.737Z,13.90
2022-10-23T01:09:30.981Z,13.90
2022-10-23T01:12:05.543Z,14.00
2022-10-23T01:14:39.459Z,14.00
2022-10-23T01:17:10.255Z,14.00
2022-10-23T01:19:51.904Z,14.00
2022-10-23T01:22:37.695Z,14.00
2022-10-23T01:25:20.970Z,14.00
2022-10-23T01:27:52.610Z,13.90
2022-10-23T01:30:20.248Z,13.90
2022-10-23T01:32:54.834Z,13.90
2022-10-23T01:35:28.265Z,13.90
2022-10-23T01:38:09.431Z,13.90
2022-10-23T01:40:44.449Z,13.90
2022-10-23T01:43:18.005Z,13.90
2022-10-23T01:45:50.878Z,13.90
2022-10-23T01:48:24.938Z,13.90
2022-10-23T01:50:54.823Z,13.90
2022-10-23T01:53:22.932Z,13.80
2022-10-23T01:55:51.830Z,13.80
2022-10-23T01:58:26.642Z,13.80
2022-10-23T02:00:59.112Z,13.80
2022-10-23T02:03:29.235Z,13.80
2022-10-23T02:05:56.678Z,13.70
2022-10-23T02:08:25.507Z,13.70
2022-10-23T02:11:00.561Z,13.70
2022-10-23T02:13:34.445Z,13.70
2022-10-23T02:16:10.740Z,13.70
2022-10-23T02:18:46.173Z,13.60
2022-10-23T02:21:17.446Z,13.60
2022-10-23T02:23:55.377Z,13.60
2022-10-23T02:26:27.541Z,13.60
2022-10-23T02:31:37.251Z,13.60
2022-10-23T02:34:04.582Z,13.60
2022-10-23T02:36:32.172Z,13.60
2022-10-23T02:39:00.665Z,13.60
2022-10-23T02:41:37.823Z,13.60
2022-10-23T02:44:23.188Z,13.60
2022-10-23T02:46:56.256Z,13.60
2022-10-23T02:49:30.512Z,13.60
2022-10-23T02:52:07.471Z,13.60
2022-10-23T02:54:50.625Z,13.60
2022-10-23T02:57:26.325Z,13.60
2022-10-23T03:00:03.163Z,13.60
2022-10-23T03:02:36.296Z,13.60
2022-10-23T03:05:06.740Z,13.50
2022-10-23T03:07:34.782Z,13.50
2022-10-23T03:10:07.932Z,13.50
2022-10-23T03:12:35.665Z,13.50
2022-10-23T03:15:07.562Z,13.50
2022-10-23T03:17:34.816Z,13.50
2022-10-23T03:20:02.763Z,13.50
2022-10-23T03:22:30.007Z,13.40
2022-10-23T03:24:57.613Z,13.40
2022-10-23T03:27:25.026Z,13.40
2022-10-23T03:29:55.150Z,13.40
2022-10-23T03:32:24.149Z,13.40
2022-10-23T03:34:51.406Z,13.30
2022-10-23T03:37:18.853Z,13.30
2022-10-23T03:39:46.174Z,13.30
2022-10-23T03:42:13.495Z,13.30
2022-10-23T03:44:40.773Z,13.30
2022-10-23T03:47:09.974Z,13.30
2022-10-23T03:49:38.805Z,13.20
2022-10-23T03:52:07.945Z,13.20
2022-10-23T03:54:35.840Z,13.20
2022-10-23T03:57:03.265Z,13.10
2022-10-23T03:59:31.112Z,13.10
2022-10-23T04:01:59.825Z,13.10
2022-10-23T04:04:27.782Z,13.00
2022-10-23T04:06:56.422Z,13.00
2022-10-23T04:09:24.044Z,13.00
2022-10-23T04:11:51.321Z,13.00
2022-10-23T04:14:18.594Z,12.90
2022-10-23T04:16:45.849Z,12.90
2022-10-23T04:19:13.215Z,12.90
2022-10-23T04:21:41.676Z,12.90
2022-10-23T04:24:10.384Z,12.80
2022-10-23T04:26:38.057Z,12.80
2022-10-23T04:29:05.404Z,12.80
2022-10-23T04:31:32.740Z,12.80
2022-10-23T04:34:00.076Z,12.80
2022-10-23T04:36:32.046Z,12.70
2022-10-23T04:39:05.780Z,12.70
2022-10-23T04:41:34.425Z,12.60
2022-10-23T04:44:01.898Z,12.60
2022-10-23T04:46:29.266Z,12.60
2022-10-23T04:48:56.499Z,12.60
2022-10-23T04:51:42.208Z,12.60
2022-10-23T04:54:28.200Z,12.60
2022-10-23T04:57:12.624Z,12.50
2022-10-23T04:59:54.898Z,12.50
2022-10-23T05:02:24.322Z,12.50
2022-10-23T05:04:52.598Z,12.40
2022-10-23T05:07:38.268Z,12.40
2022-10-23T05:10:12.876Z,12.40
2022-10-23T05:12:51.980Z,12.40
2022-10-23T05:15:19.228Z,12.30
2022-10-23T05:17:50.141Z,12.30
2022-10-23T05:20:25.116Z,12.30
2022-10-23T05:22:55.358Z,12.20
2022-10-23T05:25:25.941Z,12.20
2022-10-23T05:28:03.895Z,12.20
2022-10-23T05:30:33.113Z,12.10
2022-10-23T05:33:02.694Z,12.10
2022-10-23T05:35:36.387Z,12.10
2022-10-23T05:38:04.164Z,12.00
2022-10-23T05:40:33.100Z,12.00
2022-10-23T05:43:06.866Z,12.00
2022-10-23T05:45:53.010Z,12.00
2022-10-23T05:48:38.947Z,11.90
2022-10-23T05:51:28.389Z,11.90
2022-10-23T05:54:15.903Z,11.90
2022-10-23T05:56:59.114Z,11.90
2022-10-23T05:59:43.929Z,11.90
2022-10-23T06:02:22.845Z,11.90
2022-10-23T06:05:03.008Z,11.90
2022-10-23T06:07:47.710Z,11.80
2022-10-23T06:10:15.147Z,11.80
2022-10-23T06:12:45.882Z,11.80
2022-10-23T06:15:18.487Z,11.80
2022-10-23T06:18:01.019Z,11.80
2022-10-23T06:20:29.268Z,11.80
2022-10-23T06:23:07.138Z,11.80
2022-10-23T06:25:54.588Z,11.80
2022-10-23T06:28:27.453Z,11.80
2022-10-23T06:30:56.142Z,11.80
2022-10-23T06:33:23.488Z,11.80
2022-10-23T06:35:50.830Z,11.80
2022-10-23T06:38:18.327Z,11.80
2022-10-23T06:40:53.656Z,11.80
2022-10-23T06:43:26.953Z,11.90
2022-10-23T06:46:15.712Z,11.90
2022-10-23T06:49:01.647Z,11.90
2022-10-23T06:51:33.170Z,12.00
2022-10-23T06:54:00.653Z,12.00
2022-10-23T06:57:05.745Z,12.10
2022-10-23T06:59:41.855Z,12.20
2022-10-23T07:02:11.388Z,12.20
2022-10-23T07:04:41.170Z,12.30
2022-10-23T07:07:14.403Z,12.30
2022-10-23T07:09:47.825Z,12.40
2022-10-23T07:12:28.842Z,12.40
2022-10-23T07:15:16.631Z,12.50
2022-10-23T07:17:45.767Z,12.50
2022-10-23T07:20:13.081Z,12.60
2022-10-23T07:22:40.873Z,12.60
2022-10-23T07:25:14.464Z,12.70
2022-10-23T07:27:42.112Z,12.80
2022-10-23T07:30:11.799Z,12.90
2022-10-23T07:32:48.802Z,13.00
2022-10-23T07:35:39.394Z,13.20
2022-10-23T07:38:23.118Z,13.30
2022-10-23T07:40:57.619Z,13.40
2022-10-23T07:43:26.366Z,13.50
2022-10-23T07:45:53.965Z,13.60
2022-10-23T07:48:30.920Z,13.70
2022-10-23T07:51:03.940Z,13.80
2022-10-23T07:53:31.727Z,13.90
2022-10-23T07:56:13.488Z,14.00
2022-10-23T07:58:59.207Z,14.20
2022-10-23T08:01:31.469Z,14.30
2022-10-23T08:04:00.954Z,14.40
2022-10-23T08:06:30.098Z,14.60
2022-10-23T08:09:00.897Z,14.70
2022-10-23T08:11:35.335Z,14.90
2022-10-23T08:14:06.145Z,15.10
2022-10-23T08:16:36.438Z,15.30
2022-10-23T08:19:06.540Z,15.50
2022-10-23T08:21:35.961Z,15.70
2022-10-23T08:24:04.673Z,15.90
2022-10-23T08:26:32.089Z,16.20
2022-10-23T08:29:00.380Z,16.40
2022-10-23T08:31:28.574Z,16.70
2022-10-23T08:34:16.312Z,16.90
2022-10-23T08:36:45.901Z,17.20
2022-10-23T08:39:13.869Z,17.50
2022-10-23T08:41:53.195Z,17.70
2022-10-23T08:44:24.308Z,18.00
2022-10-23T08:47:00.277Z,18.20
2022-10-23T08:50:06.097Z,18.50
2022-10-23T08:52:39.713Z,18.80
2022-10-23T08:55:17.271Z,19.10
2022-10-23T08:57:51.429Z,19.30
2022-10-23T09:00:19.278Z,19.50
2022-10-23T09:02:48.470Z,19.60
2022-10-23T09:05:21.176Z,19.80
2022-10-23T09:08:11.773Z,19.90
2022-10-23T09:11:01.241Z,20.10
2022-10-23T09:13:51.347Z,20.40
2022-10-23T09:16:30.884Z,20.60
2022-10-23T09:18:58.669Z,20.80
2022-10-23T09:21:28.948Z,20.90
2022-10-23T09:23:56.673Z,21.10
2022-10-23T09:26:23.928Z,21.30
2022-10-23T09:28:57.571Z,21.40
2022-10-23T09:31:24.825Z,21.60
2022-10-23T09:33:56.594Z,21.80
2022-10-23T09:36:25.841Z,22.00
2022-10-23T09:38:56.186Z,22.20
2022-10-23T09:41:27.430Z,22.40
2022-10-23T09:44:03.098Z,22.50
2022-10-23T09:46:38.107Z,22.70
2022-10-23T09:49:07.392Z,22.90
2022-10-23T09:51:34.754Z,23.10
2022-10-23T09:54:03.641Z,23.40
2022-10-23T09:56:33.293Z,23.70
2022-10-23T09:59:03.205Z,23.90
2022-10-23T10:01:32.853Z,24.00
2022-10-23T10:04:31.553Z,24.30
2022-10-23T10:07:03.492Z,24.50
2022-10-23T10:09:32.576Z,24.70
2022-10-23T10:12:25.541Z,24.70
2022-10-23T10:15:00.640Z,24.70
2022-10-23T10:17:37.800Z,24.80
2022-10-23T10:20:26.714Z,24.90
2022-10-23T10:22:58.293Z,25.00
2022-10-23T10:25:33.095Z,25.00
2022-10-23T10:28:18.098Z,25.00
2022-10-23T10:30:56.355Z,25.00
2022-10-23T10:33:32.149Z,25.00
2022-10-23T10:36:08.929Z,25.00
2022-10-23T10:38:45.367Z,25.10
2022-10-23T10:41:40.091Z,25.10
2022-10-23T10:44:26.598Z,25.10
2022-10-23T10:46:58.277Z,25.10
2022-10-23T10:49:35.662Z,25.10
2022-10-23T10:52:37.639Z,25.00
2022-10-23T10:55:15.094Z,25.00
2022-10-23T10:57:48.409Z,25.00
2022-10-23T11:00:18.601Z,25.00
2022-10-23T11:02:47.749Z,25.00
2022-10-23T11:05:22.476Z,24.90
2022-10-23T11:07:55.564Z,25.00
2022-10-23T11:10:23.182Z,25.00
2022-10-23T11:12:52.376Z,25.10
2022-10-23T11:15:24.033Z,25.00
2022-10-23T11:17:55.258Z,24.80
2022-10-23T11:20:53.946Z,24.70
2022-10-23T11:23:50.008Z,24.70
2022-10-23T11:26:32.268Z,24.60
2022-10-23T11:29:22.364Z,24.60
2022-10-23T11:32:07.308Z,24.50
2022-10-23T11:35:05.979Z,24.50
2022-10-23T11:37:33.628Z,24.60
2022-10-23T11:40:13.506Z,24.50
2022-10-23T11:42:48.070Z,24.50
2022-10-23T11:45:32.705Z,24.50
2022-10-23T11:48:02.075Z,24.60
2022-10-23T11:50:32.661Z,24.60
2022-10-23T11:53:23.194Z,24.60
2022-10-23T11:56:04.160Z,24.50
2022-10-23T11:58:43.655Z,24.60
2022-10-23T12:01:37.182Z,24.50
2022-10-23T12:04:18.770Z,24.50
2022-10-23T12:06:48.821Z,24.60
2022-10-23T12:09:28.818Z,24.60
2022-10-23T12:12:13.648Z,24.50
2022-10-23T12:14:42.700Z,24.60
2022-10-23T12:17:30.265Z,24.70
2022-10-23T12:20:12.462Z,24.80
2022-10-23T12:22:47.546Z,24.70
2022-10-23T12:25:16.806Z,24.70
2022-10-23T12:27:52.758Z,24.60
2022-10-23T12:30:22.681Z,24.50
2022-10-23T12:33:11.218Z,24.50
2022-10-23T12:36:05.924Z,24.40
2022-10-23T12:38:39.348Z,24.30
2022-10-23T12:41:13.157Z,24.30
2022-10-23T12:43:42.388Z,24.30
2022-10-23T12:46:28.912Z,24.20
2022-10-23T12:48:59.280Z,24.00
2022-10-23T12:51:28.161Z,23.70
2022-10-23T12:53:55.980Z,23.50
2022-10-23T12:56:25.416Z,23.30
2022-10-23T12:58:55.496Z,23.10
2022-10-23T13:01:25.826Z,23.00
2022-10-23T13:04:02.506Z,22.80
2022-10-23T13:06:29.888Z,22.70
2022-10-23T13:08:57.685Z,22.60
2022-10-23T13:11:35.012Z,22.40
2022-10-23T13:14:11.942Z,22.30
2022-10-23T13:16:39.321Z,22.10
2022-10-23T13:19:23.100Z,22.00
2022-10-23T13:21:50.433Z,21.90
2022-10-23T13:24:21.648Z,21.90
2022-10-23T13:26:49.122Z,21.60
2022-10-23T13:29:20.471Z,21.50
2022-10-23T13:31:48.629Z,21.40
2022-10-23T13:34:26.965Z,21.40
2022-10-23T13:37:00.866Z,21.40
2022-10-23T13:39:30.684Z,21.30
2022-10-23T13:42:08.843Z,21.30
2022-10-23T13:44:37.546Z,21.20
2022-10-23T13:47:05.262Z,21.20
2022-10-23T13:49:33.828Z,21.20
2022-10-23T13:52:01.098Z,21.20
2022-10-23T13:54:29.303Z,21.20
2022-10-23T13:56:57.242Z,21.20
2022-10-23T13:59:24.505Z,21.20
2022-10-23T14:01:52.353Z,21.20
2022-10-23T14:04:20.480Z,21.20
2022-10-23T14:06:49.119Z,21.20
2022-10-23T14:09:18.249Z,21.10
2022-10-23T14:11:45.774Z,21.10
2022-10-23T14:14:13.273Z,21.00
2022-10-23T14:16:40.604Z,20.90
2022-10-23T14:19:08.451Z,20.90
2022-10-23T14:21:35.926Z,20.80
2022-10-23T14:24:04.805Z,20.80
2022-10-23T14:26:32.807Z,20.70
2022-10-23T14:29:04.159Z,20.60
2022-10-23T14:31:35.697Z,20.60
2022-10-23T14:34:02.948Z,20.50
2022-10-23T14:36:38.794Z,20.40
2022-10-23T14:39:18.725Z,20.40
2022-10-23T14:41:46.083Z,20.30
2022-10-23T14:44:13.558Z,20.30
2022-10-23T14:46:40.796Z,20.20
2022-10-23T14:49:08.033Z,20.10
2022-10-23T14:51:35.439Z,20.00
2022-10-23T14:54:04.919Z,20.00
2022-10-23T14:56:37.070Z,20.00
2022-10-23T14:59:04.959Z,20.00
2022-10-23T15:01:33.545Z,19.90
2022-10-23T15:04:00.994Z,19.90
2022-10-23T15:06:28.260Z,19.80
2022-10-23T15:08:55.678Z,19.70
2022-10-23T15:11:24.142Z,19.70
2022-10-23T15:13:54.638Z,19.60
2022-10-23T15:16:22.900Z,19.60
2022-10-23T15:18:50.686Z,19.60
2022-10-23T15:21:18.671Z,19.50
2022-10-23T15:23:46.609Z,19.40
2022-10-23T15:26:20.355Z,19.40
2022-10-23T15:28:48.180Z,19.30
2022-10-23T15:31:44.958Z,19.20
2022-10-23T15:34:16.600Z,19.10
2022-10-23T15:36:44.893Z,19.10
2022-10-23T15:39:13.833Z,19.00
2022-10-23T15:41:42.428Z,19.00
2022-10-23T15:44:12.721Z,18.90
2022-10-23T15:46:40.161Z,18.80
2022-10-23T15:49:08.793Z,18.80
2022-10-23T15:51:36.956Z,18.70
2022-10-23T15:54:05.296Z,18.70
2022-10-23T15:56:32.730Z,18.60
2022-10-23T15:59:00.165Z,18.50
2022-10-23T16:01:27.907Z,18.50
2022-10-23T16:03:55.302Z,18.40
2022-10-23T16:06:23.935Z,18.40
2022-10-23T16:08:51.278Z,18.30
2022-10-23T16:11:21.123Z,18.20
2022-10-23T16:13:48.474Z,18.20
2022-10-23T16:16:16.833Z,18.10
2022-10-23T16:18:45.480Z,18.10
2022-10-23T16:21:17.783Z,18.10
2022-10-23T16:23:46.851Z,18.00
2022-10-23T16:26:14.757Z,17.90
2022-10-23T16:28:43.858Z,17.90
2022-10-23T16:31:16.472Z,17.90
2022-10-23T16:33:46.874Z,17.80
2022-10-23T16:36:14.201Z,17.80
2022-10-23T16:39:20.213Z,17.70
2022-10-23T16:42:06.141Z,17.70
2022-10-23T16:45:04.166Z,17.70
2022-10-23T16:47:31.637Z,17.60
2022-10-23T16:49:59.574Z,17.50
2022-10-23T16:52:27.445Z,17.50
2022-10-23T16:54:56.069Z,17.50
2022-10-23T16:57:23.336Z,17.40
2022-10-23T16:59:50.609Z,17.40
2022-10-23T17:02:20.303Z,17.40
2022-10-23T17:04:48.089Z,17.40
2022-10-23T17:07:16.195Z,17.30
2022-10-23T17:09:45.026Z,17.20
2022-10-23T17:12:13.829Z,17.30
2022-10-23T17:14:41.655Z,17.20
2022-10-23T17:17:12.001Z,17.20
2022-10-23T17:19:45.550Z,17.20
2022-10-23T17:22:16.396Z,17.20
2022-10-23T17:24:46.197Z,17.10
2022-10-23T17:27:18.091Z,17.00
2022-10-23T17:29:45.369Z,17.00
2022-10-23T17:32:13.135Z,17.00
2022-10-23T17:34:40.451Z,17.00
2022-10-23T17:37:08.933Z,17.00
2022-10-23T17:39:36.903Z,16.90
2022-10-23T17:42:04.382Z,16.90
2022-10-23T17:44:32.995Z,16.90
2022-10-23T17:47:00.219Z,16.90
2022-10-23T17:49:27.563Z,16.90
2022-10-23T17:51:56.689Z,16.90
2022-10-23T17:54:24.601Z,16.90
2022-10-23T17:56:51.896Z,16.90
2022-10-23T17:59:19.685Z,16.80
2022-10-23T18:01:49.514Z,16.80
2022-10-23T18:04:18.643Z,16.80
2022-10-23T18:06:48.758Z,16.80
2022-10-23T18:09:16.340Z,16.70
2022-10-23T18:11:48.061Z,16.70
2022-10-23T18:14:17.260Z,16.70
2022-10-23T18:16:45.739Z,16.70
2022-10-23T18:19:15.322Z,16.70
2022-10-23T18:21:42.714Z,16.70
2022-10-23T18:24:10.534Z,16.70
2022-10-23T18:26:40.294Z,16.60
2022-10-23T18:29:08.665Z,16.60
2022-10-23T18:31:37.751Z,16.60
2022-10-23T18:34:07.643Z,16.60
2022-10-23T18:36:38.770Z,16.60
2022-10-23T18:39:08.361Z,16.50
2022-10-23T18:41:37.949Z,16.50
2022-10-23T18:44:05.821Z,16.50
2022-10-23T18:46:33.467Z,16.50
2022-10-23T18:49:00.991Z,16.50
2022-10-23T18:51:30.055Z,16.40
2022-10-23T18:54:01.142Z,16.40
2022-10-23T18:56:28.470Z,16.40
2022-10-23T18:58:57.882Z,16.30
2022-10-23T19:01:27.524Z,16.30
2022-10-23T19:06:30.659Z,16.20
2022-10-23T19:08:59.509Z,16.20
2022-10-23T19:11:28.166Z,16.20
2022-10-23T19:13:55.686Z,16.20
2022-10-23T19:16:27.442Z,16.20
2022-10-23T19:18:57.625Z,16.10
2022-10-23T19:21:31.090Z,16.10
2022-10-23T19:24:01.772Z,16.10
2022-10-23T19:26:30.836Z,16.00
2022-10-23T19:28:58.369Z,16.00
2022-10-23T19:31:26.423Z,16.00
2022-10-23T19:33:54.300Z,16.00
2022-10-23T19:36:23.498Z,16.00
2022-10-23T19:38:50.982Z,15.90
2022-10-23T19:41:19.573Z,15.90
2022-10-23T19:43:46.802Z,15.90
2022-10-23T19:46:14.710Z,15.90
2022-10-23T19:48:44.425Z,15.90
2022-10-23T19:51:13.187Z,15.90
2022-10-23T19:53:41.378Z,15.80
2022-10-23T19:56:10.501Z,15.80
2022-10-23T19:58:39.585Z,15.80
2022-10-23T20:01:08.690Z,15.70
2022-10-23T20:03:36.190Z,15.70
2022-10-23T20:06:03.684Z,15.70
2022-10-23T20:08:32.770Z,15.70
2022-10-23T20:11:02.357Z,15.70
2022-10-23T20:13:29.641Z,15.70
2022-10-23T20:15:58.745Z,15.60
2022-10-23T20:18:26.127Z,15.60
2022-10-23T20:20:53.748Z,15.60
2022-10-23T20:23:21.052Z,15.60
2022-10-23T20:25:48.385Z,15.60
2022-10-23T20:28:15.647Z,15.60
2022-10-23T20:30:45.478Z,15.50
2022-10-23T20:33:14.050Z,15.50
2022-10-23T20:35:42.863Z,15.50
2022-10-23T20:38:10.294Z,15.50
2022-10-23T20:40:37.930Z,15.50
2022-10-23T20:43:05.156Z,15.40
2022-10-23T20:45:32.497Z,15.40
2022-10-23T20:47:59.798Z,15.40
2022-10-23T20:50:28.510Z,15.40
2022-10-23T20:52:55.806Z,15.40
2022-10-23T20:55:23.060Z,15.30
2022-10-23T20:57:50.297Z,15.30
2022-10-23T21:00:17.903Z,15.20
2022-10-23T21:02:47.200Z,15.20
2022-10-23T21:05:17.241Z,15.20
2022-10-23T21:07:45.834Z,15.20
2022-10-23T21:10:13.097Z,15.10
2022-10-23T21:12:40.377Z,15.10
2022-10-23T21:15:09.279Z,15.10
2022-10-23T21:17:38.945Z,15.10
2022-10-23T21:20:06.984Z,15.00
2022-10-23T21:22:34.244Z,15.00
2022-10-23T21:25:02.889Z,15.00
2022-10-23T21:27:30.933Z,15.00
2022-10-23T21:29:58.241Z,14.90
2022-10-23T21:32:25.593Z,14.90
2022-10-23T21:34:52.826Z,14.90
2022-10-23T21:37:20.077Z,14.90
2022-10-23T21:39:47.329Z,14.90
2022-10-23T21:42:16.046Z,14.80
2022-10-23T21:44:43.544Z,14.80
2022-10-23T21:47:10.897Z,14.80
2022-10-23T21:49:38.290Z,14.80
2022-10-23T21:52:05.607Z,14.70
2022-10-23T21:54:33.337Z,14.70
2022-10-23T21:57:03.119Z,14.70
2022-10-23T21:59:35.493Z,14.70
2022-10-23T22:02:03.959Z,14.70
2022-10-23T22:04:31.432Z,14.70
2022-10-23T22:06:58.718Z,14.70
2022-10-23T22:09:25.952Z,14.70
2022-10-23T22:11:54.470Z,14.70
2022-10-23T22:14:22.722Z,14.70
2022-10-23T22:16:52.641Z,14.70
2022-10-23T22:19:21.398Z,14.70
2022-10-23T22:21:50.289Z,14.70
2022-10-23T22:24:17.735Z,14.70
2022-10-23T22:26:47.419Z,14.70
2022-10-23T22:29:17.783Z,14.60
2022-10-23T22:31:49.617Z,14.60
2022-10-23T22:34:27.082Z,14.60
2022-10-23T22:37:01.328Z,14.60
2022-10-23T22:39:28.678Z,14.70
2022-10-23T22:41:56.037Z,14.70
2022-10-23T22:44:23.291Z,14.70
2022-10-23T22:46:50.531Z,14.70
2022-10-23T22:49:19.108Z,14.70
2022-10-23T22:51:46.344Z,14.70
2022-10-23T22:54:13.593Z,14.70
2022-10-23T22:56:42.416Z,14.70
2022-10-23T22:59:09.740Z,14.70
2022-10-23T23:01:39.439Z,14.60
2022-10-23T23:04:19.838Z,14.60
2022-10-23T23:06:55.558Z,14.60
2022-10-23T23:09:22.908Z,14.60
2022-10-23T23:11:52.532Z,14.70
2022-10-23T23:14:23.293Z,14.60
2022-10-23T23:16:51.941Z,14.70
2022-10-23T23:19:19.468Z,14.70
2022-10-23T23:21:46.833Z,14.70
2022-10-23T23:24:15.411Z,14.70
2022-10-23T23:26:42.664Z,14.70
2022-10-23T23:29:09.927Z,14.70
2022-10-23T23:31:37.210Z,14.70
2022-10-23T23:34:04.537Z,14.70
2022-10-23T23:36:32.599Z,14.80
2022-10-23T23:39:00.350Z,14.80
2022-10-23T23:41:29.576Z,14.80
2022-10-23T23:43:58.118Z,14.90
2022-10-23T23:46:25.690Z,14.90
2022-10-23T23:48:52.965Z,14.90
2022-10-23T23:51:22.374Z,14.90
2022-10-23T23:53:50.685Z,14.90
2022-10-23T23:56:18.757Z,14.90
2022-10-23T23:58:47.347Z,14.90
